Time;durP1;ratioP1;P1;durP2;ratioP2;P2;SDS_P1;SDS_P2;PMS_P1;PMS_P2;Temp;Humidity;BMP_temperature;BMP_pressure;BME280_temperature;BME280_humidity;BME280_pressure;Samples;Min_cycle;Max_cycle;Signal;HPM_P1;HPM_P2
2023/08/09 00:02:07;;;;;;;1.60;0.40;;;13.60;99.90;;;;;;5094963;28;20058;-47
2023/08/09 00:04:33;;;;;;;2.47;0.77;;;13.60;99.90;;;;;;5094552;28;20101;-45
2023/08/09 00:06:59;;;;;;;0.83;0.40;;;13.60;99.90;;;;;;5094810;28;20281;-45
2023/08/09 00:09:24;;;;;;;1.80;0.30;;;13.60;99.90;;;;;;5094718;28;20055;-45
2023/08/09 00:11:50;;;;;;;3.10;0.47;;;13.60;99.90;;;;;;5076626;28;20129;-45
2023/08/09 00:14:16;;;;;;;2.30;0.40;;;13.50;99.90;;;;;;5094612;28;20044;-45
2023/08/09 00:16:41;;;;;;;1.90;0.40;;;13.60;99.90;;;;;;5094511;28;20047;-46
2023/08/09 00:19:09;;;;;;;1.80;0.43;;;13.50;99.90;;;;;;5094415;28;20055;-45
2023/08/09 00:21:36;;;;;;;2.58;0.50;;;13.50;99.90;;;;;;5094666;28;20044;-46
2023/08/09 00:24:03;;;;;;;0.63;0.30;;;13.50;99.90;;;;;;5093205;28;20058;-46
2023/08/09 00:26:28;;;;;;;;;;;13.50;99.90;;;;;;5127896;27;20055;-45
2023/08/09 00:28:54;;;;;;;1.55;0.30;;;13.50;99.90;;;;;;5094371;28;19926;-45
2023/08/09 00:31:19;;;;;;;1.33;0.40;;;13.40;99.90;;;;;;5094242;28;20109;-46
2023/08/09 00:33:45;;;;;;;1.83;0.40;;;13.40;99.90;;;;;;5094066;28;20036;-45
2023/08/09 00:36:11;;;;;;;1.20;0.30;;;13.40;99.90;;;;;;5094583;28;20044;-45
2023/08/09 00:38:36;;;;;;;3.00;0.40;;;13.40;99.90;;;;;;5092938;28;20518;-45
2023/08/09 00:41:03;;;;;;;1.07;0.30;;;13.40;99.90;;;;;;5094255;28;20047;-45
2023/08/09 00:43:28;;;;;;;1.45;0.22;;;13.40;99.90;;;;;;5093913;28;20055;-45
2023/08/09 00:45:55;;;;;;;1.67;0.40;;;13.40;99.90;;;;;;5094178;28;20040;-45
2023/08/09 00:48:21;;;;;;;2.80;0.40;;;13.40;99.90;;;;;;5094035;28;20036;-45
2023/08/09 00:50:47;;;;;;;4.55;0.40;;;13.40;99.90;;;;;;5094158;28;20122;-45
2023/08/09 00:53:13;;;;;;;2.95;0.40;;;13.40;99.90;;;;;;5093844;28;20131;-45
2023/08/09 00:55:39;;;;;;;2.25;0.45;;;13.30;99.90;;;;;;5093969;28;20048;-46
2023/08/09 00:58:05;;;;;;;1.80;0.40;;;13.30;99.90;;;;;;5093818;28;20075;-44
2023/08/09 01:00:31;;;;;;;1.75;0.35;;;13.40;99.90;;;;;;5093710;28;20083;-45
2023/08/09 01:02:58;;;;;;;1.45;0.40;;;13.30;99.90;;;;;;5093214;28;20130;-45
2023/08/09 01:05:32;;;;;;;1.50;0.40;;;13.30;99.90;;;;;;5093973;28;20052;-45
2023/08/09 01:08:18;;;;;;;1.42;0.30;;;13.30;99.90;;;;;;5093978;28;20040;-46
2023/08/09 01:10:55;;;;;;;1.85;0.40;;;13.30;99.90;;;;;;5093149;28;20048;-45
2023/08/09 01:13:21;;;;;;;2.47;0.47;;;13.30;99.90;;;;;;5093679;28;20052;-45
2023/08/09 01:15:50;;;;;;;2.55;0.38;;;13.30;99.90;;;;;;5094145;28;20534;-45
2023/08/09 01:18:16;;;;;;;1.90;0.40;;;13.30;99.90;;;;;;5093697;28;20052;-45
2023/08/09 01:20:43;;;;;;;;;;;13.30;99.90;;;;;;5094222;28;20076;-45
2023/08/09 01:23:17;;;;;;;1.03;0.60;;;13.30;99.90;;;;;;5093648;28;19983;-45
2023/08/09 01:25:43;;;;;;;2.63;0.70;;;13.30;99.90;;;;;;5093701;28;20051;-45
2023/08/09 01:28:09;;;;;;;3.30;0.40;;;13.20;99.90;;;;;;5093535;28;20056;-45
2023/08/09 01:30:36;;;;;;;0.95;0.30;;;13.20;99.90;;;;;;5092563;28;20116;-45
2023/08/09 01:33:03;;;;;;;1.35;0.30;;;13.20;99.90;;;;;;5093781;28;20514;-46
2023/08/09 01:35:30;;;;;;;;;;;13.20;99.90;;;;;;5093253;28;20097;-45
2023/08/09 01:38:03;;;;;;;3.47;0.50;;;13.20;99.90;;;;;;5093525;28;20362;-47
2023/08/09 01:40:31;;;;;;;1.20;0.30;;;13.10;99.90;;;;;;5092369;28;20131;-45
2023/08/09 01:42:57;;;;;;;1.85;0.40;;;13.10;99.90;;;;;;5092745;28;20406;-45
2023/08/09 01:45:24;;;;;;;2.92;0.38;;;13.10;99.90;;;;;;5093874;28;20123;-45
2023/08/09 01:47:50;;;;;;;2.80;0.40;;;13.10;99.90;;;;;;5126655;28;20070;-45
2023/08/09 01:50:27;;;;;;;1.00;0.30;;;13.10;99.90;;;;;;5092686;28;20048;-45
2023/08/09 01:52:58;;;;;;;1.15;0.30;;;13.10;99.90;;;;;;5092430;28;20056;-46
2023/08/09 01:55:26;;;;;;;0.93;0.32;;;13.10;99.90;;;;;;5075735;28;20128;-45
2023/08/09 01:57:52;;;;;;;1.08;0.30;;;13.00;99.90;;;;;;5093795;28;20044;-45
2023/08/09 02:00:20;;;;;;;1.65;0.50;;;13.00;99.90;;;;;;5093277;28;20548;-45
2023/08/09 02:02:47;;;;;;;2.00;0.38;;;13.00;99.90;;;;;;5093386;28;20069;-45
2023/08/09 02:05:13;;;;;;;1.98;0.50;;;13.00;99.90;;;;;;5093343;28;20534;-45
2023/08/09 02:07:39;;;;;;;1.98;0.40;;;13.00;99.90;;;;;;5091910;28;20170;-45
2023/08/09 02:10:06;;;;;;;0.80;0.40;;;13.00;99.90;;;;;;5093366;28;20395;-45
2023/08/09 02:12:32;;;;;;;2.63;0.60;;;13.00;99.90;;;;;;5093438;28;20040;-45
2023/08/09 02:14:58;;;;;;;2.00;0.50;;;13.00;99.90;;;;;;5093526;28;20505;-45
2023/08/09 02:17:23;;;;;;;1.30;0.30;;;13.00;99.90;;;;;;5095939;28;20047;-45
2023/08/09 02:19:49;;;;;;;0.90;0.30;;;13.00;99.90;;;;;;5112987;28;20508;-45
2023/08/09 02:22:19;;;;;;;1.30;0.33;;;12.90;99.90;;;;;;5096686;28;20105;-45
2023/08/09 02:24:45;;;;;;;1.25;0.30;;;12.90;99.90;;;;;;5096948;28;20081;-45
2023/08/09 02:27:12;;;;;;;1.67;0.30;;;13.00;99.90;;;;;;5095910;28;20040;-45
2023/08/09 02:29:38;;;;;;;2.28;0.32;;;12.90;99.90;;;;;;5096779;28;20055;-45
2023/08/09 02:32:04;;;;;;;2.10;0.50;;;12.90;99.90;;;;;;5096757;28;20044;-45
2023/08/09 02:34:30;;;;;;;0.88;0.20;;;12.90;99.90;;;;;;5096502;28;20083;-45
2023/08/09 02:36:56;;;;;;;0.95;0.30;;;13.00;99.90;;;;;;5096302;28;20084;-46
2023/08/09 02:39:21;;;;;;;3.25;0.60;;;13.00;99.90;;;;;;5096551;28;20044;-45
2023/08/09 02:41:48;;;;;;;1.23;0.40;;;13.00;99.90;;;;;;5095717;28;20505;-45
2023/08/09 02:44:14;;;;;;;2.58;0.50;;;12.90;99.90;;;;;;5096408;28;20281;-45
2023/08/09 02:46:40;;;;;;;0.65;0.30;;;12.90;99.90;;;;;;5096271;28;20364;-45
2023/08/09 02:49:06;;;;;;;1.10;0.30;;;12.90;99.90;;;;;;5096091;28;20087;-47
2023/08/09 02:51:32;;;;;;;1.37;0.43;;;12.90;99.90;;;;;;5096561;28;20123;-45
2023/08/09 02:54:03;;;;;;;1.38;0.47;;;12.90;99.90;;;;;;5096315;28;20040;-45
2023/08/09 02:56:30;;;;;;;1.95;0.43;;;12.90;99.90;;;;;;5096013;28;20090;-45
2023/08/09 02:58:57;;;;;;;0.80;0.30;;;12.90;99.90;;;;;;5096239;28;20055;-45
2023/08/09 03:01:23;;;;;;;1.77;0.43;;;12.90;99.90;;;;;;5096184;28;20048;-45
2023/08/09 03:03:49;;;;;;;2.53;0.30;;;12.90;99.90;;;;;;5094948;28;20184;-45
2023/08/09 03:06:15;;;;;;;;;;;12.90;99.90;;;;;;5096506;28;20055;-46
2023/08/09 03:08:41;;;;;;;1.13;0.32;;;12.90;99.90;;;;;;5096040;28;20290;-45
2023/08/09 03:11:07;;;;;;;2.93;0.33;;;12.90;99.90;;;;;;5095961;28;20052;-46
2023/08/09 03:13:32;;;;;;;3.03;0.57;;;12.90;99.90;;;;;;5095852;28;20047;-46
2023/08/09 03:15:59;;;;;;;4.50;0.40;;;12.90;99.90;;;;;;5095861;28;20282;-45
2023/08/09 03:18:25;;;;;;;2.65;0.45;;;12.90;99.90;;;;;;5095603;28;20536;-45
2023/08/09 03:20:52;;;;;;;0.65;0.30;;;12.90;99.90;;;;;;5095674;28;20052;-45
2023/08/09 03:23:18;;;;;;;1.10;0.40;;;12.90;99.90;;;;;;5095736;28;20052;-47
2023/08/09 03:25:44;;;;;;;2.67;0.40;;;12.90;99.90;;;;;;5095384;28;20052;-46
2023/08/09 03:28:09;;;;;;;2.67;0.40;;;12.90;99.90;;;;;;5095605;28;20399;-45
2023/08/09 03:30:35;;;;;;;1.30;0.45;;;12.90;99.90;;;;;;5095650;28;20494;-46
2023/08/09 03:33:01;;;;;;;1.50;0.30;;;12.80;99.90;;;;;;5095511;28;20070;-46
2023/08/09 03:35:26;;;;;;;0.63;0.30;;;12.80;99.90;;;;;;5095868;28;20074;-46
2023/08/09 03:37:52;;;;;;;1.27;0.30;;;12.80;99.90;;;;;;5095412;28;20130;-45
2023/08/09 03:40:18;;;;;;;1.07;0.30;;;12.80;99.90;;;;;;5095449;28;20055;-45
2023/08/09 03:42:43;;;;;;;1.90;0.70;;;12.80;99.90;;;;;;5094432;28;20497;-45
2023/08/09 03:45:09;;;;;;;2.33;0.60;;;12.80;99.90;;;;;;5095339;28;20119;-45
2023/08/09 03:47:36;;;;;;;1.55;0.30;;;12.70;99.90;;;;;;5094997;28;20388;-45
2023/08/09 03:50:04;;;;;;;1.48;0.30;;;12.80;99.90;;;;;;5095422;28;20123;-45
2023/08/09 03:52:31;;;;;;;0.95;0.30;;;12.80;99.90;;;;;;5095162;28;20044;-45
2023/08/09 03:54:57;;;;;;;1.35;0.40;;;12.80;99.90;;;;;;5094135;28;20040;-45
2023/08/09 03:57:22;;;;;;;1.57;0.50;;;12.80;99.90;;;;;;5093820;28;20040;-45
2023/08/09 03:59:49;;;;;;;1.77;0.33;;;12.80;99.90;;;;;;5094083;28;20087;-45
2023/08/09 04:02:16;;;;;;;1.02;0.32;;;12.70;99.90;;;;;;5094757;28;20628;-45
2023/08/09 04:04:41;;;;;;;2.80;0.55;;;12.80;99.90;;;;;;5094791;28;20052;-44
2023/08/09 04:07:07;;;;;;;1.63;0.30;;;12.70;99.90;;;;;;5095211;28;20399;-44
2023/08/09 04:09:33;;;;;;;2.03;0.43;;;12.80;99.90;;;;;;5095138;28;20079;-45
2023/08/09 04:11:59;;;;;;;2.33;0.40;;;12.80;99.90;;;;;;5094803;28;20047;-45
2023/08/09 04:14:26;;;;;;;0.70;0.40;;;12.80;99.90;;;;;;5093644;28;20325;-45
2023/08/09 04:16:51;;;;;;;;;;;12.80;99.90;;;;;;5093706;28;20395;-45
2023/08/09 04:19:17;;;;;;;1.45;0.40;;;12.70;99.90;;;;;;5094991;28;19920;-44
2023/08/09 04:21:44;;;;;;;1.67;0.40;;;12.70;99.90;;;;;;5094556;28;20411;-45
2023/08/09 04:24:10;;;;;;;;;;;12.70;99.90;;;;;;5095325;28;20084;-45
2023/08/09 04:26:36;;;;;;;0.70;0.25;;;12.70;99.90;;;;;;5093446;28;20366;-45
2023/08/09 04:29:03;;;;;;;0.60;0.30;;;12.70;99.90;;;;;;5094130;28;20052;-45
2023/08/09 04:31:29;;;;;;;0.88;0.30;;;12.70;99.90;;;;;;5094167;28;20044;-45
2023/08/09 04:33:54;;;;;;;2.63;0.40;;;12.80;99.90;;;;;;5094393;28;20048;-45
2023/08/09 04:36:21;;;;;;;1.43;0.50;;;12.70;99.90;;;;;;5093177;28;20040;-45
2023/08/09 04:38:46;;;;;;;3.63;0.35;;;12.70;99.90;;;;;;5093586;28;20384;-46
2023/08/09 04:41:12;;;;;;;2.42;0.30;;;12.70;99.90;;;;;;5094474;28;20102;-45
2023/08/09 04:43:43;;;;;;;1.58;0.50;;;12.70;99.90;;;;;;5094185;28;20048;-45
2023/08/09 04:46:13;;;;;;;0.80;0.30;;;12.70;99.90;;;;;;5093138;28;20177;-45
2023/08/09 04:48:40;;;;;;;1.33;0.40;;;12.70;99.90;;;;;;5094130;28;20498;-45
2023/08/09 04:51:07;;;;;;;1.52;0.65;;;12.80;99.90;;;;;;5094120;28;20054;-45
2023/08/09 04:53:33;;;;;;;1.65;0.40;;;12.80;99.90;;;;;;5094072;28;20048;-45
2023/08/09 04:55:58;;;;;;;1.13;0.40;;;12.70;99.90;;;;;;5094052;28;20508;-45
2023/08/09 04:58:24;;;;;;;1.33;0.60;;;12.80;99.90;;;;;;5094065;28;20080;-45
2023/08/09 05:00:50;;;;;;;1.27;0.43;;;12.80;99.90;;;;;;5093722;28;20048;-45
2023/08/09 05:03:16;;;;;;;1.57;0.30;;;12.80;99.90;;;;;;5093993;28;20130;-45
2023/08/09 05:05:41;;;;;;;2.30;0.30;;;12.80;99.90;;;;;;5094243;28;20040;-45
2023/08/09 05:08:07;;;;;;;3.97;0.33;;;12.90;99.90;;;;;;5093750;28;20044;-45
2023/08/09 05:10:34;;;;;;;2.35;0.40;;;12.90;99.90;;;;;;5092735;28;20044;-45
2023/08/09 05:13:00;;;;;;;0.60;0.40;;;12.90;99.90;;;;;;5093739;28;20044;-46
2023/08/09 05:15:26;;;;;;;1.33;0.40;;;12.90;99.90;;;;;;5092799;28;20081;-45
2023/08/09 05:17:51;;;;;;;1.60;0.30;;;13.00;99.90;;;;;;5092590;28;20116;-46
2023/08/09 05:20:17;;;;;;;2.23;0.30;;;13.00;99.90;;;;;;5093689;28;20540;-46
2023/08/09 05:22:43;;;;;;;1.50;0.30;;;13.10;99.90;;;;;;5093748;28;20549;-45
2023/08/09 05:25:09;;;;;;;2.40;0.50;;;13.20;99.90;;;;;;5093561;28;20044;-44
2023/08/09 05:27:34;;;;;;;1.00;0.20;;;13.20;99.90;;;;;;5092375;28;20036;-43
2023/08/09 05:30:00;;;;;;;1.23;0.40;;;13.20;99.90;;;;;;5093516;28;20060;-44
2023/08/09 05:32:26;;;;;;;1.40;0.50;;;13.30;99.90;;;;;;5093847;28;20500;-46
2023/08/09 05:34:51;;;;;;;1.97;0.53;;;13.40;99.90;;;;;;5093674;28;20052;-45
2023/08/09 05:37:17;;;;;;;1.47;0.67;;;13.40;99.90;;;;;;5093670;28;20394;-45
2023/08/09 05:39:43;;;;;;;2.23;0.83;;;13.50;99.90;;;;;;5093763;28;20048;-44
2023/08/09 05:42:08;;;;;;;1.13;0.30;;;13.50;99.90;;;;;;5093485;28;20040;-45
2023/08/09 05:44:37;;;;;;;1.10;0.40;;;13.60;99.90;;;;;;5093387;28;20044;-45
2023/08/09 05:47:03;;;;;;;1.23;0.40;;;13.60;99.90;;;;;;5076017;28;20044;-44
2023/08/09 05:49:29;;;;;;;2.65;0.38;;;13.70;99.90;;;;;;5095879;28;20067;-45
2023/08/09 05:51:55;;;;;;;1.20;0.38;;;13.90;99.90;;;;;;5097572;28;20046;-46
2023/08/09 05:54:20;;;;;;;1.60;0.40;;;14.40;99.90;;;;;;5097456;28;20123;-45
2023/08/09 05:56:46;;;;;;;2.20;0.50;;;15.00;99.90;;;;;;5097352;28;20048;-45
2023/08/09 05:59:12;;;;;;;1.10;0.30;;;15.40;99.90;;;;;;5097121;28;20101;-44
2023/08/09 06:01:38;;;;;;;2.20;0.60;;;15.60;99.90;;;;;;5097488;28;20055;-45
2023/08/09 06:04:04;;;;;;;1.15;0.30;;;16.00;99.90;;;;;;5096331;28;20101;-45
2023/08/09 06:06:29;;;;;;;1.35;0.30;;;16.40;99.90;;;;;;5097266;28;20048;-45
2023/08/09 06:08:55;;;;;;;1.45;0.55;;;16.70;99.90;;;;;;5097222;28;20051;-45
2023/08/09 06:11:21;;;;;;;1.42;0.50;;;17.00;99.90;;;;;;5095836;28;20403;-46
2023/08/09 06:13:47;;;;;;;2.70;0.43;;;17.60;99.90;;;;;;5096815;28;20134;-45
2023/08/09 06:16:13;;;;;;;2.60;0.50;;;18.20;99.90;;;;;;5097045;28;20483;-45
2023/08/09 06:18:38;;;;;;;1.23;0.47;;;18.90;99.90;;;;;;5097175;28;20158;-45
2023/08/09 06:21:04;;;;;;;3.00;0.60;;;19.80;99.90;;;;;;5097064;28;20043;-45
2023/08/09 06:23:30;;;;;;;1.02;0.30;;;20.50;99.90;;;;;;5096922;28;20073;-45
2023/08/09 06:25:56;;;;;;;3.92;0.40;;;21.10;99.90;;;;;;5096741;28;20048;-45
2023/08/09 06:28:22;;;;;;;1.70;0.30;;;21.60;99.90;;;;;;5096494;28;20048;-45
2023/08/09 06:30:48;;;;;;;1.00;0.30;;;22.10;99.90;;;;;;5096513;28;20106;-45
2023/08/09 06:33:13;;;;;;;0.90;0.35;;;22.50;99.90;;;;;;5096654;28;20044;-46
2023/08/09 06:35:39;;;;;;;2.33;0.75;;;22.80;99.90;;;;;;5096778;28;20044;-46
2023/08/09 06:38:05;;;;;;;1.38;0.40;;;23.00;99.90;;;;;;5096739;28;20046;-46
2023/08/09 06:40:30;;;;;;;1.65;0.47;;;23.10;99.90;;;;;;5096636;28;20399;-45
2023/08/09 06:42:56;;;;;;;1.45;0.30;;;22.90;99.90;;;;;;5096369;28;20059;-46
2023/08/09 06:45:22;;;;;;;2.20;0.40;;;22.50;99.90;;;;;;5095433;28;20130;-45
2023/08/09 06:47:48;;;;;;;1.58;0.40;;;21.90;99.90;;;;;;5096507;28;20044;-45
2023/08/09 06:50:14;;;;;;;0.98;0.40;;;21.20;99.90;;;;;;5096367;28;20046;-47
2023/08/09 06:52:39;;;;;;;1.15;0.40;;;20.60;99.90;;;;;;5096207;28;20394;-46
2023/08/09 06:55:07;;;;;;;1.42;0.38;;;20.00;99.90;;;;;;5096341;28;20036;-46
2023/08/09 06:57:34;;;;;;;1.88;0.30;;;19.70;99.90;;;;;;5096060;28;20044;-46
2023/08/09 07:00:00;;;;;;;1.13;0.38;;;19.40;99.90;;;;;;5095452;28;20052;-45
2023/08/09 07:02:26;;;;;;;;;;;19.20;99.90;;;;;;5096961;28;20040;-46
2023/08/09 07:04:54;;;;;;;3.05;0.40;;;18.90;99.90;;;;;;5095152;28;20355;-45
2023/08/09 07:07:21;;;;;;;1.45;0.40;;;18.80;99.90;;;;;;5096064;28;20044;-45
2023/08/09 07:09:47;;;;;;;0.88;0.30;;;19.00;99.90;;;;;;5096080;28;20052;-45
2023/08/09 07:12:12;;;;;;;0.77;0.30;;;19.60;99.90;;;;;;5094668;28;20100;-45
2023/08/09 07:14:38;;;;;;;0.63;0.30;;;20.00;99.90;;;;;;5095959;28;20048;-45
2023/08/09 07:17:04;;;;;;;1.13;0.30;;;19.90;99.90;;;;;;5096404;28;20047;-45
2023/08/09 07:19:30;;;;;;;2.20;0.40;;;19.80;99.90;;;;;;5094475;28;20506;-46
2023/08/09 07:21:55;;;;;;;1.75;0.40;;;19.70;99.90;;;;;;5095773;28;20087;-45
2023/08/09 07:24:21;;;;;;;0.95;0.30;;;19.40;99.90;;;;;;5095830;28;20055;-46
2023/08/09 07:26:47;;;;;;;1.55;0.30;;;19.10;99.90;;;;;;5095417;28;20054;-46
2023/08/09 07:29:12;;;;;;;1.90;0.40;;;18.70;99.90;;;;;;5095802;28;20506;-45
2023/08/09 07:31:38;;;;;;;1.45;0.30;;;18.50;99.90;;;;;;5095693;28;20048;-45
2023/08/09 07:34:04;;;;;;;1.42;0.40;;;18.20;99.90;;;;;;5078095;28;20158;-45
2023/08/09 07:36:30;;;;;;;1.35;0.38;;;18.00;99.90;;;;;;5095567;28;20048;-46
2023/08/09 07:38:57;;;;;;;1.02;0.32;;;17.80;99.90;;;;;;5095397;28;20402;-45
2023/08/09 07:41:22;;;;;;;2.25;0.40;;;17.70;99.90;;;;;;5094172;28;20056;-46
2023/08/09 07:43:48;;;;;;;3.97;0.35;;;17.50;99.90;;;;;;5095421;28;20129;-46
2023/08/09 07:46:14;;;;;;;1.10;0.40;;;17.40;99.90;;;;;;5095319;28;20101;-45
2023/08/09 07:48:40;;;;;;;0.88;0.30;;;17.30;99.90;;;;;;5095274;28;20134;-46
2023/08/09 07:51:11;;;;;;;3.15;0.43;;;17.30;99.90;;;;;;5094047;28;20052;-46
2023/08/09 07:53:37;;;;;;;1.10;0.30;;;17.20;99.90;;;;;;5094336;28;20047;-45
2023/08/09 07:56:03;;;;;;;0.70;0.30;;;17.20;99.90;;;;;;5095015;28;20127;-45
2023/08/09 07:58:29;;;;;;;2.60;0.35;;;17.20;99.90;;;;;;5095155;28;20127;-45
2023/08/09 08:00:55;;;;;;;1.00;0.35;;;17.10;99.90;;;;;;5095282;28;20040;-46
2023/08/09 08:03:20;;;;;;;1.58;0.52;;;17.20;99.90;;;;;;5094910;28;20047;-45
2023/08/09 08:05:46;;;;;;;2.33;0.30;;;17.20;99.90;;;;;;5094929;28;20044;-45
2023/08/09 08:08:12;;;;;;;0.77;0.30;;;17.20;99.90;;;;;;5094834;28;20040;-45
2023/08/09 08:10:37;;;;;;;0.70;0.40;;;17.20;99.90;;;;;;5094602;28;20087;-46
2023/08/09 08:13:03;;;;;;;1.27;0.40;;;17.20;99.90;;;;;;5094623;28;20056;-47
2023/08/09 08:15:29;;;;;;;1.45;0.43;;;17.20;99.90;;;;;;5093827;28;20055;-46
2023/08/09 08:17:55;;;;;;;2.17;0.40;;;17.20;99.90;;;;;;5093654;28;20383;-45
2023/08/09 08:20:21;;;;;;;1.77;0.40;;;17.20;99.90;;;;;;5094669;28;20040;-45
2023/08/09 08:22:49;;;;;;;0.40;0.20;;;17.30;99.90;;;;;;5094663;28;20040;-45
2023/08/09 08:25:16;;;;;;;2.83;0.32;;;17.20;99.90;;;;;;5094370;28;20048;-48
2023/08/09 08:27:45;;;;;;;1.17;0.32;;;17.30;99.90;;;;;;5094576;28;20117;-46
2023/08/09 08:30:16;;;;;;;1.35;0.22;;;17.30;99.90;;;;;;5094193;28;20582;-46
2023/08/09 08:32:48;;;;;;;2.25;0.40;;;17.30;99.90;;;;;;5094576;28;20391;-44
2023/08/09 08:35:19;;;;;;;0.60;0.30;;;17.40;99.90;;;;;;5094305;28;20483;-45
2023/08/09 08:37:47;;;;;;;4.18;0.40;;;17.40;99.90;;;;;;5094114;28;20048;-45
2023/08/09 08:40:17;;;;;;;1.23;0.20;;;17.50;99.90;;;;;;5094291;28;20044;-46
2023/08/09 08:42:44;;;;;;;0.65;0.30;;;17.60;99.90;;;;;;5094818;28;20419;-45
2023/08/09 08:45:11;;;;;;;3.13;0.43;;;17.60;99.90;;;;;;5094241;28;20047;-46
2023/08/09 08:47:41;;;;;;;1.85;0.40;;;17.50;99.90;;;;;;5093059;28;20051;-45
2023/08/09 08:50:08;;;;;;;1.20;0.40;;;17.50;99.90;;;;;;5093752;28;20047;-45
2023/08/09 08:52:37;;;;;;;2.17;0.50;;;17.50;99.90;;;;;;5094755;28;20088;-46
2023/08/09 08:55:11;;;;;;;0.65;0.32;;;17.50;99.90;;;;;;5094042;28;20506;-46
2023/08/09 08:57:38;;;;;;;0.88;0.30;;;17.50;99.90;;;;;;5094446;28;20177;-45
2023/08/09 09:00:08;;;;;;;1.42;0.30;;;17.60;99.90;;;;;;5093925;28;20048;-45
2023/08/09 09:02:40;;;;;;;1.33;0.43;;;17.60;99.90;;;;;;5093808;28;20145;-47
2023/08/09 09:05:06;;;;;;;2.08;0.30;;;17.60;99.90;;;;;;5093816;28;20484;-46
2023/08/09 09:07:33;;;;;;;1.33;0.40;;;17.60;99.90;;;;;;5093028;28;20075;-45
2023/08/09 09:09:59;;;;;;;2.70;0.35;;;17.60;99.90;;;;;;5094180;28;20123;-47
2023/08/09 09:12:25;;;;;;;1.00;0.40;;;17.60;99.90;;;;;;5093867;28;20514;-45
2023/08/09 09:14:52;;;;;;;1.15;0.38;;;17.60;99.90;;;;;;5093656;28;20050;-45
2023/08/09 09:17:21;;;;;;;1.65;0.30;;;17.70;99.90;;;;;;5093650;28;20047;-46
2023/08/09 09:19:48;;;;;;;2.67;0.40;;;17.70;99.90;;;;;;5093925;28;20055;-46
2023/08/09 09:22:28;;;;;;;1.33;0.40;;;17.80;99.90;;;;;;5093840;28;20054;-46
2023/08/09 09:24:58;;;;;;;1.05;0.28;;;17.80;99.90;;;;;;5099670;28;20144;-45
2023/08/09 09:27:33;;;;;;;1.42;0.45;;;17.80;99.90;;;;;;5100519;28;20058;-45
2023/08/09 09:30:09;;;;;;;1.02;0.25;;;17.90;99.90;;;;;;5100134;28;20079;-46
2023/08/09 09:32:35;;;;;;;0.50;0.30;;;17.90;99.90;;;;;;5100528;28;20479;-46
2023/08/09 09:35:01;;;;;;;;;;;17.90;99.90;;;;;;5099614;28;20048;-46
2023/08/09 09:37:28;;;;;;;1.15;0.35;;;17.90;99.90;;;;;;5100462;28;20334;-46
2023/08/09 09:39:54;;;;;;;1.92;0.32;;;17.80;99.90;;;;;;5100359;28;20566;-45
2023/08/09 09:42:34;;;;;;;3.65;0.52;;;17.90;99.90;;;;;;5100121;28;20052;-45
2023/08/09 09:45:09;;;;;;;2.42;0.40;;;18.00;99.90;;;;;;5100336;28;20123;-46
2023/08/09 09:47:38;;;;;;;0.88;0.30;;;18.00;99.90;;;;;;5100231;28;20036;-46
2023/08/09 09:50:07;;;;;;;0.70;0.30;;;18.10;99.90;;;;;;5100310;28;20048;-46
2023/08/09 09:52:36;;;;;;;0.70;0.30;;;18.10;99.90;;;;;;5100085;28;20047;-46
2023/08/09 09:55:03;;;;;;;1.88;0.40;;;18.20;99.90;;;;;;5099020;28;20050;-47
2023/08/09 09:57:29;;;;;;;1.25;0.40;;;18.20;99.90;;;;;;5100110;28;20046;-48
2023/08/09 09:59:59;;;;;;;1.50;0.30;;;18.40;99.90;;;;;;5099193;28;20093;-48
2023/08/09 10:02:31;;;;;;;0.52;0.30;;;18.40;99.90;;;;;;5100136;28;20052;-46
2023/08/09 10:05:01;;;;;;;2.40;0.47;;;18.40;99.90;;;;;;5100201;28;20252;-45
2023/08/09 10:07:30;;;;;;;0.82;0.30;;;18.40;99.90;;;;;;5099971;28;20048;-45
2023/08/09 10:10:01;;;;;;;2.42;0.38;;;18.40;99.90;;;;;;5098932;28;20047;-46
2023/08/09 10:12:27;;;;;;;1.27;0.45;;;18.40;99.90;;;;;;5098799;28;20499;-45
2023/08/09 10:14:54;;;;;;;1.70;0.50;;;18.50;99.90;;;;;;5099991;28;20044;-46
2023/08/09 10:17:22;;;;;;;2.30;0.35;;;18.50;99.90;;;;;;5099901;28;20077;-45
2023/08/09 10:19:49;;;;;;;2.33;0.40;;;18.60;99.90;;;;;;5099704;28;20052;-46
2023/08/09 10:22:18;;;;;;;3.20;0.40;;;18.60;99.90;;;;;;5100001;28;20093;-45
2023/08/09 10:24:47;;;;;;;1.02;0.40;;;18.50;99.90;;;;;;5099173;28;20052;-45
2023/08/09 10:27:13;;;;;;;1.50;0.30;;;18.50;99.90;;;;;;5099996;28;20051;-45
2023/08/09 10:29:43;;;;;;;0.95;0.40;;;18.50;99.90;;;;;;5099656;28;20056;-47
2023/08/09 10:32:09;;;;;;;1.30;0.50;;;18.60;99.90;;;;;;5098514;28;20051;-45
2023/08/09 10:34:42;;;;;;;0.77;0.35;;;18.70;99.90;;;;;;5098557;28;20109;-45
2023/08/09 10:37:10;;;;;;;0.80;0.30;;;18.80;99.90;;;;;;5096199;28;20460;-46
2023/08/09 10:39:36;;;;;;;1.08;0.30;;;18.80;99.90;;;;;;5096570;28;20082;-45
2023/08/09 10:42:10;;;;;;;1.63;0.40;;;18.90;99.90;;;;;;5096846;28;20101;-46
2023/08/09 10:44:44;;;;;;;0.40;0.30;;;18.80;99.90;;;;;;5096470;28;20047;-47
2023/08/09 10:47:19;;;;;;;1.42;0.40;;;18.80;99.90;;;;;;5096602;28;20097;-47
2023/08/09 10:49:47;;;;;;;1.05;0.40;;;18.80;99.90;;;;;;5096511;28;20090;-47
2023/08/09 10:52:28;;;;;;;1.05;0.30;;;19.00;99.90;;;;;;5096631;28;20048;-46
2023/08/09 10:55:19;;;;;;;1.52;0.40;;;19.30;99.90;;;;;;5096325;28;20495;-45
2023/08/09 10:57:48;;;;;;;1.33;0.40;;;19.50;99.90;;;;;;5096298;28;20382;-45
2023/08/09 11:00:14;;;;;;;0.93;0.40;;;19.60;99.90;;;;;;5096260;28;20493;-47
2023/08/09 11:02:56;;;;;;;;;;;19.60;99.90;;;;;;5096892;28;20139;-46
2023/08/09 11:05:22;;;;;;;2.08;0.80;;;19.60;99.90;;;;;;5096146;28;19927;-46
2023/08/09 11:07:50;;;;;;;1.65;0.60;;;19.60;99.90;;;;;;5095955;28;20490;-46
2023/08/09 11:10:28;;;;;;;1.20;0.43;;;19.70;99.90;;;;;;5094805;28;20487;-47
2023/08/09 11:12:54;;;;;;;1.42;0.40;;;19.80;99.90;;;;;;5096311;28;20048;-47
2023/08/09 11:15:21;;;;;;;1.92;0.40;;;19.90;99.90;;;;;;5094744;28;20113;-47
2023/08/09 11:17:48;;;;;;;1.85;0.43;;;19.90;99.90;;;;;;5095671;28;20044;-45
2023/08/09 11:20:15;;;;;;;0.85;0.30;;;19.80;99.90;;;;;;5094750;28;20048;-48
2023/08/09 11:23:02;;;;;;;0.95;0.30;;;19.90;99.90;;;;;;5094668;28;20051;-46
2023/08/09 11:25:29;;;;;;;2.92;0.40;;;20.00;99.90;;;;;;5095836;28;20048;-45
2023/08/09 11:27:57;;;;;;;0.52;0.28;;;20.30;99.90;;;;;;5095669;28;20051;-47
2023/08/09 11:30:24;;;;;;;1.95;0.30;;;20.40;99.90;;;;;;5095795;28;20083;-46
2023/08/09 11:32:55;;;;;;;2.53;0.40;;;20.60;99.90;;;;;;5095362;28;20083;-46
2023/08/09 11:35:39;;;;;;;0.63;0.25;;;20.80;99.90;;;;;;5095546;28;20189;-48
2023/08/09 11:38:09;;;;;;;1.65;0.40;;;20.90;99.90;;;;;;5095657;28;20067;-45
2023/08/09 11:40:40;;;;;;;1.17;0.40;;;20.90;99.90;;;;;;5095451;28;20047;-48
2023/08/09 11:43:10;;;;;;;1.70;0.40;;;20.80;99.90;;;;;;5095460;28;20044;-45
2023/08/09 11:45:50;;;;;;;1.10;0.40;;;20.70;99.90;;;;;;5095633;28;20130;-45
2023/08/09 11:48:29;;;;;;;1.58;0.40;;;20.60;99.90;;;;;;5095431;28;20054;-46
2023/08/09 11:51:00;;;;;;;1.67;0.50;;;20.80;99.90;;;;;;5095236;28;20407;-52
2023/08/09 11:53:26;;;;;;;1.23;0.35;;;20.90;99.90;;;;;;5095167;28;20131;-48
2023/08/09 11:55:58;;;;;;;0.93;0.30;;;20.90;99.90;;;;;;5095139;28;20158;-49
2023/08/09 11:58:24;;;;;;;1.33;0.45;;;20.90;99.90;;;;;;5095071;28;20040;-50
2023/08/09 12:00:49;;;;;;;1.90;0.43;;;20.90;99.90;;;;;;5095072;28;20048;-47
2023/08/09 12:03:22;;;;;;;0.85;0.50;;;21.00;99.90;;;;;;5094639;28;20407;-47
2023/08/09 12:05:52;;;;;;;1.75;0.55;;;21.10;99.90;;;;;;5095057;28;20052;-47
2023/08/09 12:08:31;;;;;;;0.90;0.20;;;21.10;99.90;;;;;;5094799;28;20048;-53
2023/08/09 12:10:57;;;;;;;2.25;0.40;;;21.00;99.90;;;;;;5095474;28;20071;-48
2023/08/09 12:13:23;;;;;;;2.25;0.40;;;21.10;99.90;;;;;;5093890;28;20463;-47
2023/08/09 12:15:49;;;;;;;;;;;21.10;99.90;;;;;;5095121;28;20059;-47
2023/08/09 12:18:15;;;;;;;0.90;0.30;;;21.10;99.90;;;;;;5094434;28;19919;-53
2023/08/09 12:20:41;;;;;;;1.20;0.40;;;21.20;99.90;;;;;;5094726;28;20127;-54
2023/08/09 12:23:07;;;;;;;1.25;0.40;;;21.40;99.90;;;;;;5094684;28;20075;-50
2023/08/09 12:25:32;;;;;;;2.65;0.57;;;21.30;99.90;;;;;;5093618;28;20157;-48
2023/08/09 12:27:58;;;;;;;1.75;0.47;;;21.10;99.90;;;;;;5094274;28;20036;-53
2023/08/09 12:30:24;;;;;;;1.13;0.38;;;20.90;99.90;;;;;;5094816;28;20502;-49
2023/08/09 12:32:50;;;;;;;1.75;0.40;;;20.70;99.90;;;;;;5094657;28;20048;-50
2023/08/09 12:35:15;;;;;;;1.95;0.32;;;20.70;99.90;;;;;;5093364;28;20398;-47
2023/08/09 12:37:41;;;;;;;2.28;0.43;;;20.60;99.90;;;;;;5093944;28;20044;-54
2023/08/09 12:40:07;;;;;;;1.73;0.40;;;20.50;99.90;;;;;;5094358;28;20400;-48
2023/08/09 12:42:33;;;;;;;;;;;20.30;99.90;;;;;;5094742;28;20128;-48
2023/08/09 12:44:59;;;;;;;1.05;0.30;;;20.30;99.90;;;;;;5094205;28;19920;-47
2023/08/09 12:47:24;;;;;;;1.17;0.30;;;20.20;99.90;;;;;;5094262;28;20459;-47
2023/08/09 12:49:50;;;;;;;1.45;0.40;;;20.10;99.90;;;;;;5094095;28;20157;-48
2023/08/09 12:52:16;;;;;;;1.52;0.40;;;20.00;99.90;;;;;;5093998;28;20043;-47